sensor_id;sensor_type;location;lat;lon;timestamp;P1;durP1;ratioP1;P2;durP2;ratioP2
85121;SDS011;75480;52.260;20.916;2024-01-11T00:00:02;121.60;;;42.20;;
85121;SDS011;75480;52.260;20.916;2024-01-11T00:01:35;119.32;;;42.22;;
85121;SDS011;75480;52.260;20.916;2024-01-11T00:03:05;108.35;;;40.95;;
85121;SDS011;75480;52.260;20.916;2024-01-11T00:04:36;126.38;;;42.35;;
85121;SDS011;75480;52.260;20.916;2024-01-11T00:06:07;127.90;;;46.22;;
85121;SDS011;75480;52.260;20.916;2024-01-11T00:07:37;97.45;;;38.05;;
85121;SDS011;75480;52.260;20.916;2024-01-11T00:09:08;121.85;;;45.10;;
85121;SDS011;75480;52.260;20.916;2024-01-11T00:10:39;115.40;;;43.67;;
85121;SDS011;75480;52.260;20.916;2024-01-11T00:12:09;120.32;;;45.40;;
85121;SDS011;75480;52.260;20.916;2024-01-11T00:13:40;107.35;;;41.45;;
85121;SDS011;75480;52.260;20.916;2024-01-11T00:15:11;109.10;;;39.13;;
85121;SDS011;75480;52.260;20.916;2024-01-11T00:16:41;118.60;;;46.63;;
85121;SDS011;75480;52.260;20.916;2024-01-11T00:18:12;112.38;;;43.30;;
85121;SDS011;75480;52.260;20.916;2024-01-11T00:19:43;114.30;;;41.88;;
85121;SDS011;75480;52.260;20.916;2024-01-11T00:21:13;126.30;;;46.78;;
85121;SDS011;75480;52.260;20.916;2024-01-11T00:22:44;122.07;;;43.28;;
85121;SDS011;75480;52.260;20.916;2024-01-11T00:24:18;110.90;;;42.05;;
85121;SDS011;75480;52.260;20.916;2024-01-11T00:25:48;116.80;;;45.50;;
85121;SDS011;75480;52.260;20.916;2024-01-11T00:27:19;116.88;;;43.92;;
85121;SDS011;75480;52.260;20.916;2024-01-11T00:28:50;114.80;;;40.45;;
85121;SDS011;75480;52.260;20.916;2024-01-11T00:30:21;111.45;;;43.50;;
85121;SDS011;75480;52.260;20.916;2024-01-11T00:31:55;109.63;;;40.60;;
85121;SDS011;75480;52.260;20.916;2024-01-11T00:33:26;131.88;;;45.92;;
85121;SDS011;75480;52.260;20.916;2024-01-11T00:34:56;121.05;;;43.90;;
85121;SDS011;75480;52.260;20.916;2024-01-11T00:36:27;122.32;;;43.45;;
85121;SDS011;75480;52.260;20.916;2024-01-11T00:37:59;115.72;;;43.25;;
85121;SDS011;75480;52.260;20.916;2024-01-11T00:39:30;108.40;;;42.25;;
85121;SDS011;75480;52.260;20.916;2024-01-11T00:41:00;117.15;;;42.58;;
85121;SDS011;75480;52.260;20.916;2024-01-11T00:42:31;121.45;;;44.47;;
85121;SDS011;75480;52.260;20.916;2024-01-11T00:44:02;113.88;;;42.55;;
85121;SDS011;75480;52.260;20.916;2024-01-11T00:45:32;111.07;;;41.67;;
85121;SDS011;75480;52.260;20.916;2024-01-11T00:47:03;111.60;;;39.80;;
85121;SDS011;75480;52.260;20.916;2024-01-11T00:48:34;108.95;;;42.13;;
85121;SDS011;75480;52.260;20.916;2024-01-11T00:50:05;108.57;;;42.13;;
85121;SDS011;75480;52.260;20.916;2024-01-11T00:51:36;119.53;;;40.10;;
85121;SDS011;75480;52.260;20.916;2024-01-11T00:53:06;104.85;;;37.30;;
85121;SDS011;75480;52.260;20.916;2024-01-11T00:54:38;113.35;;;42.10;;
85121;SDS011;75480;52.260;20.916;2024-01-11T00:56:16;93.90;;;35.53;;
85121;SDS011;75480;52.260;20.916;2024-01-11T00:57:49;102.28;;;37.13;;
85121;SDS011;75480;52.260;20.916;2024-01-11T00:59:20;91.78;;;35.58;;
85121;SDS011;75480;52.260;20.916;2024-01-11T01:00:52;95.82;;;36.92;;
85121;SDS011;75480;52.260;20.916;2024-01-11T01:02:23;93.25;;;37.17;;
85121;SDS011;75480;52.260;20.916;2024-01-11T01:03:54;91.82;;;34.58;;
85121;SDS011;75480;52.260;20.916;2024-01-11T01:05:25;83.10;;;32.85;;
85121;SDS011;75480;52.260;20.916;2024-01-11T01:06:55;87.15;;;33.35;;
85121;SDS011;75480;52.260;20.916;2024-01-11T01:08:26;93.03;;;34.95;;
85121;SDS011;75480;52.260;20.916;2024-01-11T01:09:57;79.90;;;31.95;;
85121;SDS011;75480;52.260;20.916;2024-01-11T01:11:27;78.90;;;31.40;;
85121;SDS011;75480;52.260;20.916;2024-01-11T01:12:58;83.43;;;31.30;;
85121;SDS011;75480;52.260;20.916;2024-01-11T01:14:29;77.38;;;29.85;;
85121;SDS011;75480;52.260;20.916;2024-01-11T01:15:59;72.63;;;30.58;;
85121;SDS011;75480;52.260;20.916;2024-01-11T01:17:30;75.85;;;29.65;;
85121;SDS011;75480;52.260;20.916;2024-01-11T01:19:01;78.07;;;26.48;;
85121;SDS011;75480;52.260;20.916;2024-01-11T01:20:31;77.65;;;29.58;;
85121;SDS011;75480;52.260;20.916;2024-01-11T01:22:02;64.80;;;27.17;;
85121;SDS011;75480;52.260;20.916;2024-01-11T01:23:33;72.65;;;27.02;;
85121;SDS011;75480;52.260;20.916;2024-01-11T01:25:04;71.60;;;29.73;;
85121;SDS011;75480;52.260;20.916;2024-01-11T01:26:34;73.20;;;29.80;;
85121;SDS011;75480;52.260;20.916;2024-01-11T01:28:06;75.72;;;28.02;;
85121;SDS011;75480;52.260;20.916;2024-01-11T01:29:38;75.35;;;29.63;;
85121;SDS011;75480;52.260;20.916;2024-01-11T01:31:09;73.30;;;29.20;;
85121;SDS011;75480;52.260;20.916;2024-01-11T01:32:40;72.25;;;29.95;;
85121;SDS011;75480;52.260;20.916;2024-01-11T01:34:11;78.53;;;29.48;;
85121;SDS011;75480;52.260;20.916;2024-01-11T01:35:41;75.32;;;28.83;;
85121;SDS011;75480;52.260;20.916;2024-01-11T01:37:12;82.05;;;32.25;;
85121;SDS011;75480;52.260;20.916;2024-01-11T01:38:42;70.03;;;28.23;;
85121;SDS011;75480;52.260;20.916;2024-01-11T01:40:13;72.03;;;26.77;;
85121;SDS011;75480;52.260;20.916;2024-01-11T01:41:44;78.88;;;30.80;;
85121;SDS011;75480;52.260;20.916;2024-01-11T01:43:15;79.18;;;30.67;;
85121;SDS011;75480;52.260;20.916;2024-01-11T01:44:45;69.28;;;29.10;;
85121;SDS011;75480;52.260;20.916;2024-01-11T01:46:19;74.05;;;28.70;;
85121;SDS011;75480;52.260;20.916;2024-01-11T01:47:53;83.00;;;30.00;;
85121;SDS011;75480;52.260;20.916;2024-01-11T01:49:24;69.13;;;28.50;;
85121;SDS011;75480;52.260;20.916;2024-01-11T01:50:55;66.85;;;26.85;;
85121;SDS011;75480;52.260;20.916;2024-01-11T01:52:26;71.30;;;28.98;;
85121;SDS011;75480;52.260;20.916;2024-01-11T01:53:57;72.18;;;28.67;;
85121;SDS011;75480;52.260;20.916;2024-01-11T01:55:29;69.43;;;28.67;;
85121;SDS011;75480;52.260;20.916;2024-01-11T01:57:00;64.13;;;26.23;;
85121;SDS011;75480;52.260;20.916;2024-01-11T01:58:32;77.75;;;28.30;;
85121;SDS011;75480;52.260;20.916;2024-01-11T02:00:04;74.55;;;30.52;;
85121;SDS011;75480;52.260;20.916;2024-01-11T02:01:35;70.03;;;27.42;;
85121;SDS011;75480;52.260;20.916;2024-01-11T02:03:05;70.88;;;28.02;;
85121;SDS011;75480;52.260;20.916;2024-01-11T02:04:36;70.65;;;26.63;;
85121;SDS011;75480;52.260;20.916;2024-01-11T02:06:07;69.70;;;26.98;;
85121;SDS011;75480;52.260;20.916;2024-01-11T02:07:40;67.97;;;24.20;;
85121;SDS011;75480;52.260;20.916;2024-01-11T02:09:11;69.78;;;27.20;;
85121;SDS011;75480;52.260;20.916;2024-01-11T02:10:43;72.15;;;27.80;;
85121;SDS011;75480;52.260;20.916;2024-01-11T02:12:16;63.47;;;25.90;;
85121;SDS011;75480;52.260;20.916;2024-01-11T02:13:47;69.50;;;25.80;;
85121;SDS011;75480;52.260;20.916;2024-01-11T02:15:18;57.17;;;23.05;;
85121;SDS011;75480;52.260;20.916;2024-01-11T02:16:48;62.33;;;25.25;;
85121;SDS011;75480;52.260;20.916;2024-01-11T02:18:19;67.85;;;25.95;;
85121;SDS011;75480;52.260;20.916;2024-01-11T02:19:50;64.68;;;24.33;;
85121;SDS011;75480;52.260;20.916;2024-01-11T02:21:20;68.20;;;25.60;;
85121;SDS011;75480;52.260;20.916;2024-01-11T02:22:53;60.63;;;22.38;;
85121;SDS011;75480;52.260;20.916;2024-01-11T02:24:28;70.43;;;24.83;;
85121;SDS011;75480;52.260;20.916;2024-01-11T02:25:59;60.58;;;22.52;;
85121;SDS011;75480;52.260;20.916;2024-01-11T02:27:30;58.58;;;24.45;;
85121;SDS011;75480;52.260;20.916;2024-01-11T02:29:01;66.30;;;24.02;;
85121;SDS011;75480;52.260;20.916;2024-01-11T02:30:32;65.05;;;25.70;;
85121;SDS011;75480;52.260;20.916;2024-01-11T02:32:03;66.95;;;25.55;;
85121;SDS011;75480;52.260;20.916;2024-01-11T02:35:05;70.32;;;22.70;;
85121;SDS011;75480;52.260;20.916;2024-01-11T02:36:37;58.33;;;23.48;;
85121;SDS011;75480;52.260;20.916;2024-01-11T02:38:08;66.57;;;24.45;;
85121;SDS011;75480;52.260;20.916;2024-01-11T02:39:39;68.25;;;25.88;;
85121;SDS011;75480;52.260;20.916;2024-01-11T02:41:10;62.70;;;24.75;;
85121;SDS011;75480;52.260;20.916;2024-01-11T02:42:41;65.65;;;25.02;;
85121;SDS011;75480;52.260;20.916;2024-01-11T02:44:12;64.15;;;23.58;;
85121;SDS011;75480;52.260;20.916;2024-01-11T02:45:43;67.38;;;24.05;;
85121;SDS011;75480;52.260;20.916;2024-01-11T02:47:16;63.65;;;23.08;;
85121;SDS011;75480;52.260;20.916;2024-01-11T02:48:50;60.60;;;24.20;;
85121;SDS011;75480;52.260;20.916;2024-01-11T02:50:25;61.97;;;23.52;;
85121;SDS011;75480;52.260;20.916;2024-01-11T02:51:55;69.85;;;22.63;;
85121;SDS011;75480;52.260;20.916;2024-01-11T02:53:28;70.88;;;25.60;;
85121;SDS011;75480;52.260;20.916;2024-01-11T02:55:04;67.85;;;23.55;;
85121;SDS011;75480;52.260;20.916;2024-01-11T02:56:39;67.10;;;23.85;;
85121;SDS011;75480;52.260;20.916;2024-01-11T02:58:09;63.55;;;22.55;;
85121;SDS011;75480;52.260;20.916;2024-01-11T02:59:40;65.10;;;24.77;;
85121;SDS011;75480;52.260;20.916;2024-01-11T03:01:12;66.38;;;23.33;;
85121;SDS011;75480;52.260;20.916;2024-01-11T03:02:42;71.45;;;25.08;;
85121;SDS011;75480;52.260;20.916;2024-01-11T03:04:13;73.00;;;24.90;;
85121;SDS011;75480;52.260;20.916;2024-01-11T03:05:44;64.25;;;23.75;;
85121;SDS011;75480;52.260;20.916;2024-01-11T03:07:15;68.22;;;21.55;;
85121;SDS011;75480;52.260;20.916;2024-01-11T03:08:45;75.78;;;25.58;;
85121;SDS011;75480;52.260;20.916;2024-01-11T03:10:16;68.05;;;24.08;;
85121;SDS011;75480;52.260;20.916;2024-01-11T03:11:47;60.08;;;22.08;;
85121;SDS011;75480;52.260;20.916;2024-01-11T03:13:17;76.20;;;23.25;;
85121;SDS011;75480;52.260;20.916;2024-01-11T03:14:48;77.38;;;26.83;;
85121;SDS011;75480;52.260;20.916;2024-01-11T03:16:19;74.03;;;23.90;;
85121;SDS011;75480;52.260;20.916;2024-01-11T03:17:49;65.20;;;24.70;;
85121;SDS011;75480;52.260;20.916;2024-01-11T03:19:20;68.57;;;22.17;;
85121;SDS011;75480;52.260;20.916;2024-01-11T03:20:50;72.70;;;26.38;;
85121;SDS011;75480;52.260;20.916;2024-01-11T03:22:21;62.00;;;22.02;;
85121;SDS011;75480;52.260;20.916;2024-01-11T03:23:52;76.25;;;24.80;;
85121;SDS011;75480;52.260;20.916;2024-01-11T03:25:25;67.78;;;23.80;;
85121;SDS011;75480;52.260;20.916;2024-01-11T03:26:56;70.90;;;22.95;;
85121;SDS011;75480;52.260;20.916;2024-01-11T03:28:26;71.28;;;25.40;;
85121;SDS011;75480;52.260;20.916;2024-01-11T03:29:57;70.53;;;25.25;;
85121;SDS011;75480;52.260;20.916;2024-01-11T03:31:28;73.97;;;25.85;;
85121;SDS011;75480;52.260;20.916;2024-01-11T03:32:59;65.30;;;24.45;;
85121;SDS011;75480;52.260;20.916;2024-01-11T03:34:29;75.32;;;24.98;;
85121;SDS011;75480;52.260;20.916;2024-01-11T03:36:06;75.05;;;26.20;;
85121;SDS011;75480;52.260;20.916;2024-01-11T03:37:37;72.70;;;23.83;;
85121;SDS011;75480;52.260;20.916;2024-01-11T03:39:08;74.20;;;26.40;;
85121;SDS011;75480;52.260;20.916;2024-01-11T03:40:39;68.28;;;24.15;;
85121;SDS011;75480;52.260;20.916;2024-01-11T03:42:09;69.88;;;23.60;;
85121;SDS011;75480;52.260;20.916;2024-01-11T03:43:40;73.78;;;25.13;;
85121;SDS011;75480;52.260;20.916;2024-01-11T03:45:11;77.15;;;25.75;;
85121;SDS011;75480;52.260;20.916;2024-01-11T03:46:41;79.88;;;26.67;;
85121;SDS011;75480;52.260;20.916;2024-01-11T03:48:12;64.88;;;23.25;;
85121;SDS011;75480;52.260;20.916;2024-01-11T03:49:43;74.97;;;25.25;;
85121;SDS011;75480;52.260;20.916;2024-01-11T03:51:13;70.18;;;25.48;;
85121;SDS011;75480;52.260;20.916;2024-01-11T03:52:44;79.00;;;25.65;;
85121;SDS011;75480;52.260;20.916;2024-01-11T03:54:15;75.53;;;25.77;;
85121;SDS011;75480;52.260;20.916;2024-01-11T03:55:45;64.30;;;24.40;;
85121;SDS011;75480;52.260;20.916;2024-01-11T03:57:16;56.60;;;20.88;;
85121;SDS011;75480;52.260;20.916;2024-01-11T03:58:47;76.55;;;25.70;;
85121;SDS011;75480;52.260;20.916;2024-01-11T04:00:18;72.63;;;24.52;;
85121;SDS011;75480;52.260;20.916;2024-01-11T04:01:49;70.78;;;27.17;;
85121;SDS011;75480;52.260;20.916;2024-01-11T04:03:20;64.78;;;24.75;;
85121;SDS011;75480;52.260;20.916;2024-01-11T04:04:50;81.07;;;29.58;;
85121;SDS011;75480;52.260;20.916;2024-01-11T04:06:21;68.50;;;27.02;;
85121;SDS011;75480;52.260;20.916;2024-01-11T04:07:54;81.53;;;28.88;;
85121;SDS011;75480;52.260;20.916;2024-01-11T04:09:27;72.43;;;26.17;;
85121;SDS011;75480;52.260;20.916;2024-01-11T04:10:57;73.78;;;27.45;;
85121;SDS011;75480;52.260;20.916;2024-01-11T04:12:28;82.45;;;28.13;;
85121;SDS011;75480;52.260;20.916;2024-01-11T04:13:59;80.45;;;29.67;;
85121;SDS011;75480;52.260;20.916;2024-01-11T04:15:29;73.35;;;26.63;;
85121;SDS011;75480;52.260;20.916;2024-01-11T04:17:00;80.88;;;28.00;;
85121;SDS011;75480;52.260;20.916;2024-01-11T04:18:31;73.50;;;27.45;;
85121;SDS011;75480;52.260;20.916;2024-01-11T04:20:01;76.50;;;28.50;;
85121;SDS011;75480;52.260;20.916;2024-01-11T04:21:33;75.13;;;27.65;;
85121;SDS011;75480;52.260;20.916;2024-01-11T04:23:03;85.03;;;30.88;;
85121;SDS011;75480;52.260;20.916;2024-01-11T04:24:34;80.68;;;28.98;;
85121;SDS011;75480;52.260;20.916;2024-01-11T04:26:05;77.25;;;27.17;;
85121;SDS011;75480;52.260;20.916;2024-01-11T04:27:36;78.03;;;27.70;;
85121;SDS011;75480;52.260;20.916;2024-01-11T04:29:06;76.13;;;25.73;;
85121;SDS011;75480;52.260;20.916;2024-01-11T04:30:37;75.25;;;27.40;;
85121;SDS011;75480;52.260;20.916;2024-01-11T04:32:07;79.18;;;28.73;;
85121;SDS011;75480;52.260;20.916;2024-01-11T04:33:41;66.93;;;26.08;;
85121;SDS011;75480;52.260;20.916;2024-01-11T04:35:14;83.30;;;28.98;;
85121;SDS011;75480;52.260;20.916;2024-01-11T04:36:45;79.70;;;32.17;;
85121;SDS011;75480;52.260;20.916;2024-01-11T04:38:15;75.30;;;25.95;;
85121;SDS011;75480;52.260;20.916;2024-01-11T04:39:46;74.32;;;28.67;;
85121;SDS011;75480;52.260;20.916;2024-01-11T04:41:18;68.38;;;26.48;;
85121;SDS011;75480;52.260;20.916;2024-01-11T04:42:48;74.32;;;24.25;;
85121;SDS011;75480;52.260;20.916;2024-01-11T04:44:19;74.25;;;28.17;;
85121;SDS011;75480;52.260;20.916;2024-01-11T04:45:50;80.13;;;28.25;;
85121;SDS011;75480;52.260;20.916;2024-01-11T04:47:20;75.40;;;26.15;;
85121;SDS011;75480;52.260;20.916;2024-01-11T04:48:51;85.25;;;27.02;;
85121;SDS011;75480;52.260;20.916;2024-01-11T04:50:22;76.22;;;26.15;;
85121;SDS011;75480;52.260;20.916;2024-01-11T04:51:53;72.70;;;27.58;;
85121;SDS011;75480;52.260;20.916;2024-01-11T04:53:24;74.40;;;26.52;;
85121;SDS011;75480;52.260;20.916;2024-01-11T04:54:54;72.90;;;26.13;;
85121;SDS011;75480;52.260;20.916;2024-01-11T04:56:25;74.75;;;26.08;;
85121;SDS011;75480;52.260;20.916;2024-01-11T04:57:56;84.72;;;28.45;;
85121;SDS011;75480;52.260;20.916;2024-01-11T04:59:26;82.20;;;26.98;;
85121;SDS011;75480;52.260;20.916;2024-01-11T05:00:57;78.85;;;29.45;;
85121;SDS011;75480;52.260;20.916;2024-01-11T05:02:27;74.75;;;27.58;;
85121;SDS011;75480;52.260;20.916;2024-01-11T05:03:58;74.45;;;26.42;;
85121;SDS011;75480;52.260;20.916;2024-01-11T05:05:29;79.57;;;28.35;;
85121;SDS011;75480;52.260;20.916;2024-01-11T05:07:00;80.88;;;27.15;;
85121;SDS011;75480;52.260;20.916;2024-01-11T05:08:31;71.88;;;25.08;;
85121;SDS011;75480;52.260;20.916;2024-01-11T05:10:01;73.82;;;24.73;;
85121;SDS011;75480;52.260;20.916;2024-01-11T05:11:33;65.82;;;24.52;;
85121;SDS011;75480;52.260;20.916;2024-01-11T05:13:03;77.00;;;25.98;;
85121;SDS011;75480;52.260;20.916;2024-01-11T05:14:34;80.53;;;26.05;;
85121;SDS011;75480;52.260;20.916;2024-01-11T05:16:05;72.57;;;26.15;;
85121;SDS011;75480;52.260;20.916;2024-01-11T05:17:35;70.40;;;24.63;;
85121;SDS011;75480;52.260;20.916;2024-01-11T05:19:06;72.60;;;25.45;;
85121;SDS011;75480;52.260;20.916;2024-01-11T05:20:38;67.80;;;24.33;;
85121;SDS011;75480;52.260;20.916;2024-01-11T05:22:08;69.70;;;25.95;;
85121;SDS011;75480;52.260;20.916;2024-01-11T05:23:40;61.42;;;22.48;;
85121;SDS011;75480;52.260;20.916;2024-01-11T05:25:12;65.32;;;24.95;;
85121;SDS011;75480;52.260;20.916;2024-01-11T05:26:43;68.15;;;23.95;;
85121;SDS011;75480;52.260;20.916;2024-01-11T05:28:13;66.22;;;23.77;;
85121;SDS011;75480;52.260;20.916;2024-01-11T05:29:44;62.40;;;23.67;;
85121;SDS011;75480;52.260;20.916;2024-01-11T05:31:15;64.75;;;23.75;;
85121;SDS011;75480;52.260;20.916;2024-01-11T05:32:46;57.80;;;23.17;;
85121;SDS011;75480;52.260;20.916;2024-01-11T05:34:17;54.38;;;22.55;;
85121;SDS011;75480;52.260;20.916;2024-01-11T05:35:47;62.22;;;23.23;;
85121;SDS011;75480;52.260;20.916;2024-01-11T05:37:18;65.80;;;22.67;;
85121;SDS011;75480;52.260;20.916;2024-01-11T05:38:51;64.32;;;23.02;;
85121;SDS011;75480;52.260;20.916;2024-01-11T05:40:21;60.15;;;21.73;;
85121;SDS011;75480;52.260;20.916;2024-01-11T05:41:52;58.53;;;21.58;;
85121;SDS011;75480;52.260;20.916;2024-01-11T05:43:23;56.42;;;22.27;;
85121;SDS011;75480;52.260;20.916;2024-01-11T05:44:53;62.22;;;21.70;;
85121;SDS011;75480;52.260;20.916;2024-01-11T05:46:24;55.33;;;21.25;;
85121;SDS011;75480;52.260;20.916;2024-01-11T05:47:55;47.88;;;18.73;;
85121;SDS011;75480;52.260;20.916;2024-01-11T05:49:25;61.03;;;22.17;;
85121;SDS011;75480;52.260;20.916;2024-01-11T05:50:56;53.97;;;19.98;;
85121;SDS011;75480;52.260;20.916;2024-01-11T05:52:27;54.05;;;21.60;;
85121;SDS011;75480;52.260;20.916;2024-01-11T05:53:58;51.10;;;19.70;;
85121;SDS011;75480;52.260;20.916;2024-01-11T05:55:29;52.70;;;22.38;;
85121;SDS011;75480;52.260;20.916;2024-01-11T05:57:00;53.13;;;19.65;;
85121;SDS011;75480;52.260;20.916;2024-01-11T05:58:30;54.25;;;19.02;;
85121;SDS011;75480;52.260;20.916;2024-01-11T06:00:01;48.88;;;18.90;;
85121;SDS011;75480;52.260;20.916;2024-01-11T06:01:32;45.33;;;17.75;;
85121;SDS011;75480;52.260;20.916;2024-01-11T06:03:03;49.72;;;19.10;;
85121;SDS011;75480;52.260;20.916;2024-01-11T06:04:35;43.75;;;16.40;;
85121;SDS011;75480;52.260;20.916;2024-01-11T06:06:06;49.33;;;19.33;;
85121;SDS011;75480;52.260;20.916;2024-01-11T06:07:37;54.67;;;19.58;;
85121;SDS011;75480;52.260;20.916;2024-01-11T06:09:08;47.00;;;19.83;;
85121;SDS011;75480;52.260;20.916;2024-01-11T06:12:11;52.88;;;18.02;;
85121;SDS011;75480;52.260;20.916;2024-01-11T06:13:43;52.67;;;19.85;;
85121;SDS011;75480;52.260;20.916;2024-01-11T06:15:14;46.30;;;20.00;;
85121;SDS011;75480;52.260;20.916;2024-01-11T06:16:44;46.70;;;18.42;;
85121;SDS011;75480;52.260;20.916;2024-01-11T06:18:15;38.25;;;14.82;;
85121;SDS011;75480;52.260;20.916;2024-01-11T06:19:46;46.92;;;17.95;;
85121;SDS011;75480;52.260;20.916;2024-01-11T06:21:17;47.15;;;18.02;;
85121;SDS011;75480;52.260;20.916;2024-01-11T06:22:47;43.88;;;16.70;;
85121;SDS011;75480;52.260;20.916;2024-01-11T06:24:18;42.65;;;19.63;;
85121;SDS011;75480;52.260;20.916;2024-01-11T06:25:49;48.00;;;18.60;;
85121;SDS011;75480;52.260;20.916;2024-01-11T06:27:20;43.00;;;15.63;;
85121;SDS011;75480;52.260;20.916;2024-01-11T06:28:50;38.67;;;15.32;;
85121;SDS011;75480;52.260;20.916;2024-01-11T06:30:21;44.20;;;18.33;;
85121;SDS011;75480;52.260;20.916;2024-01-11T06:31:52;45.05;;;17.42;;
85121;SDS011;75480;52.260;20.916;2024-01-11T06:33:23;45.95;;;16.88;;
85121;SDS011;75480;52.260;20.916;2024-01-11T06:34:53;43.17;;;17.33;;
85121;SDS011;75480;52.260;20.916;2024-01-11T06:36:24;46.42;;;17.60;;
85121;SDS011;75480;52.260;20.916;2024-01-11T06:37:55;47.03;;;17.83;;
85121;SDS011;75480;52.260;20.916;2024-01-11T06:39:26;44.67;;;16.52;;
85121;SDS011;75480;52.260;20.916;2024-01-11T06:40:56;42.13;;;16.40;;
85121;SDS011;75480;52.260;20.916;2024-01-11T06:42:27;38.20;;;15.75;;
85121;SDS011;75480;52.260;20.916;2024-01-11T06:43:58;42.38;;;16.80;;
85121;SDS011;75480;52.260;20.916;2024-01-11T06:45:29;42.97;;;16.15;;
85121;SDS011;75480;52.260;20.916;2024-01-11T06:47:00;44.35;;;16.73;;
85121;SDS011;75480;52.260;20.916;2024-01-11T06:48:32;44.83;;;16.17;;
85121;SDS011;75480;52.260;20.916;2024-01-11T06:50:03;37.55;;;15.07;;
85121;SDS011;75480;52.260;20.916;2024-01-11T06:51:34;40.60;;;15.73;;
85121;SDS011;75480;52.260;20.916;2024-01-11T06:53:05;38.15;;;14.45;;
85121;SDS011;75480;52.260;20.916;2024-01-11T06:54:35;41.67;;;13.00;;
85121;SDS011;75480;52.260;20.916;2024-01-11T06:56:15;45.33;;;15.40;;
85121;SDS011;75480;52.260;20.916;2024-01-11T06:57:47;41.17;;;15.75;;
85121;SDS011;75480;52.260;20.916;2024-01-11T06:59:18;39.92;;;14.88;;
85121;SDS011;75480;52.260;20.916;2024-01-11T07:00:49;33.42;;;13.93;;
85121;SDS011;75480;52.260;20.916;2024-01-11T07:02:20;42.00;;;15.88;;
85121;SDS011;75480;52.260;20.916;2024-01-11T07:03:51;42.00;;;15.75;;
85121;SDS011;75480;52.260;20.916;2024-01-11T07:05:22;38.72;;;14.45;;
85121;SDS011;75480;52.260;20.916;2024-01-11T07:06:52;43.33;;;15.68;;
85121;SDS011;75480;52.260;20.916;2024-01-11T07:08:23;39.30;;;15.88;;
85121;SDS011;75480;52.260;20.916;2024-01-11T07:09:54;40.67;;;13.98;;
85121;SDS011;75480;52.260;20.916;2024-01-11T07:11:25;41.72;;;15.32;;
85121;SDS011;75480;52.260;20.916;2024-01-11T07:12:56;37.75;;;14.75;;
85121;SDS011;75480;52.260;20.916;2024-01-11T07:14:27;44.28;;;16.05;;
85121;SDS011;75480;52.260;20.916;2024-01-11T07:15:59;43.88;;;14.95;;
85121;SDS011;75480;52.260;20.916;2024-01-11T07:17:30;42.17;;;14.15;;
85121;SDS011;75480;52.260;20.916;2024-01-11T07:19:01;38.35;;;15.13;;
85121;SDS011;75480;52.260;20.916;2024-01-11T07:20:32;39.30;;;15.95;;
85121;SDS011;75480;52.260;20.916;2024-01-11T07:22:02;33.97;;;13.15;;
85121;SDS011;75480;52.260;20.916;2024-01-11T07:23:33;43.38;;;15.55;;
85121;SDS011;75480;52.260;20.916;2024-01-11T07:25:04;37.25;;;14.88;;
85121;SDS011;75480;52.260;20.916;2024-01-11T07:26:34;36.30;;;15.05;;
85121;SDS011;75480;52.260;20.916;2024-01-11T07:28:05;42.83;;;15.65;;
85121;SDS011;75480;52.260;20.916;2024-01-11T07:29:36;41.42;;;16.23;;
85121;SDS011;75480;52.260;20.916;2024-01-11T07:31:06;40.28;;;14.75;;
85121;SDS011;75480;52.260;20.916;2024-01-11T07:32:37;44.13;;;17.27;;
85121;SDS011;75480;52.260;20.916;2024-01-11T07:34:08;39.13;;;14.77;;
85121;SDS011;75480;52.260;20.916;2024-01-11T07:35:39;46.47;;;16.60;;
85121;SDS011;75480;52.260;20.916;2024-01-11T07:37:09;47.60;;;16.50;;
85121;SDS011;75480;52.260;20.916;2024-01-11T07:38:40;47.78;;;15.13;;
85121;SDS011;75480;52.260;20.916;2024-01-11T07:40:11;45.30;;;16.52;;
85121;SDS011;75480;52.260;20.916;2024-01-11T07:41:42;38.95;;;15.18;;
85121;SDS011;75480;52.260;20.916;2024-01-11T07:43:12;41.28;;;16.48;;
85121;SDS011;75480;52.260;20.916;2024-01-11T07:44:44;43.08;;;14.60;;
85121;SDS011;75480;52.260;20.916;2024-01-11T07:46:15;41.72;;;14.68;;
85121;SDS011;75480;52.260;20.916;2024-01-11T07:47:45;39.92;;;14.52;;
85121;SDS011;75480;52.260;20.916;2024-01-11T07:49:17;50.75;;;17.58;;
85121;SDS011;75480;52.260;20.916;2024-01-11T07:50:48;33.78;;;12.70;;
85121;SDS011;75480;52.260;20.916;2024-01-11T07:52:18;45.17;;;15.63;;
85121;SDS011;75480;52.260;20.916;2024-01-11T07:53:49;47.33;;;16.20;;
85121;SDS011;75480;52.260;20.916;2024-01-11T07:55:20;40.35;;;14.65;;
85121;SDS011;75480;52.260;20.916;2024-01-11T07:56:54;41.92;;;16.88;;
85121;SDS011;75480;52.260;20.916;2024-01-11T07:58:24;47.50;;;17.88;;
85121;SDS011;75480;52.260;20.916;2024-01-11T07:59:55;49.03;;;17.83;;
85121;SDS011;75480;52.260;20.916;2024-01-11T08:01:25;50.13;;;17.77;;
85121;SDS011;75480;52.260;20.916;2024-01-11T08:02:56;42.58;;;15.75;;
85121;SDS011;75480;52.260;20.916;2024-01-11T08:04:27;41.00;;;14.63;;
85121;SDS011;75480;52.260;20.916;2024-01-11T08:05:58;50.55;;;17.48;;
85121;SDS011;75480;52.260;20.916;2024-01-11T08:07:28;48.40;;;17.33;;
85121;SDS011;75480;52.260;20.916;2024-01-11T08:08:59;49.13;;;17.33;;
85121;SDS011;75480;52.260;20.916;2024-01-11T08:10:30;42.08;;;14.45;;
85121;SDS011;75480;52.260;20.916;2024-01-11T08:12:01;58.28;;;20.23;;
85121;SDS011;75480;52.260;20.916;2024-01-11T08:13:32;46.67;;;16.20;;
85121;SDS011;75480;52.260;20.916;2024-01-11T08:15:04;50.22;;;17.45;;
85121;SDS011;75480;52.260;20.916;2024-01-11T08:16:35;47.05;;;16.63;;
85121;SDS011;75480;52.260;20.916;2024-01-11T08:18:06;48.67;;;15.98;;
85121;SDS011;75480;52.260;20.916;2024-01-11T08:19:38;48.15;;;15.60;;
85121;SDS011;75480;52.260;20.916;2024-01-11T08:21:08;48.00;;;18.48;;
85121;SDS011;75480;52.260;20.916;2024-01-11T08:22:40;42.47;;;16.35;;
85121;SDS011;75480;52.260;20.916;2024-01-11T08:24:13;49.10;;;17.02;;
85121;SDS011;75480;52.260;20.916;2024-01-11T08:25:43;50.75;;;17.00;;
85121;SDS011;75480;52.260;20.916;2024-01-11T08:27:14;52.28;;;17.58;;
85121;SDS011;75480;52.260;20.916;2024-01-11T08:28:47;56.55;;;18.35;;
85121;SDS011;75480;52.260;20.916;2024-01-11T08:30:18;46.15;;;15.10;;
85121;SDS011;75480;52.260;20.916;2024-01-11T08:31:50;51.60;;;18.20;;
85121;SDS011;75480;52.260;20.916;2024-01-11T08:33:21;45.40;;;16.08;;
85121;SDS011;75480;52.260;20.916;2024-01-11T08:34:51;49.30;;;18.02;;
85121;SDS011;75480;52.260;20.916;2024-01-11T08:36:22;53.30;;;17.88;;
85121;SDS011;75480;52.260;20.916;2024-01-11T08:37:59;47.70;;;15.90;;
85121;SDS011;75480;52.260;20.916;2024-01-11T08:39:29;46.45;;;16.48;;
85121;SDS011;75480;52.260;20.916;2024-01-11T08:41:10;44.85;;;15.82;;
85121;SDS011;75480;52.260;20.916;2024-01-11T08:42:41;48.00;;;16.45;;
85121;SDS011;75480;52.260;20.916;2024-01-11T08:44:13;53.80;;;16.63;;
85121;SDS011;75480;52.260;20.916;2024-01-11T08:45:44;42.85;;;15.82;;
85121;SDS011;75480;52.260;20.916;2024-01-11T08:47:14;50.85;;;16.98;;